Etusivu
METAR-TAF:

METAR-TAF

Lentoasemat :

Marigot, Dominica

Leveyspiiri: 15-32N, Pituuspiiri: 061-18W, korkeus merenpinnasta: 13 m

Tämänhetkinen sää

Tämä raportti tehtiin 29 minuuttia sitten, kello 11.00 UTC
Tuuli 5 kn idästä/kaakosta
Lämpötila 28°C
Kosteus 84%
Ilmanpaine 1015 hPa
Näkyvyys 10 km tai enemmän
Hajonneita pilviä 1900 ft:n korkeudessa

METAR: TDPD 211100Z 12005KT 9999 BKN019 28/25 Q1015

Aika: 07:29 (11:29 UTC)

Sääennuste

Tämä raportti tehtiin 6 tuntia ja 29 minuuttia sitten, kello 05.00 UTC
Ennuste voimassa 21. päivästä klo 06 UTC - 22. päivään klo 06 UTC
Tuuli 6 kn idästä/kaakosta
Näkyvyys 10 km tai enemmän
Hajanaisia pilviä 1800 ft:n korkeudessa

TAF: TDPD 210500Z 2106/2206 12006KT 9999 SCT018

Säähavainnot ja -ennusteet yli 4000 lentoasemalta (METAR- ja TAF-raportit).

Käytössä olevat sääasemat on merkitty karttaan keltaisilla ja punaisilla pisteillä.

Aseta hiiri pisteen päälle nähdäksesi sääaseman nimen.

Klikkaa sitten nähdäksesi säähavainnot ja -ennusteet.

Kartan vaihtaminen: klikkaa mustalla rastilla varustettuja vihreitä pisteitä, niin voit zoomata sisään; viivalla varustettua vihreää pistettä, niin voit zoomata ulos tai vihreitä nuolia, niin pääset viereisille kartoille.


METAR-TAF: